Time;durP1;ratioP1;P1;durP2;ratioP2;P2;SDS_P1;SDS_P2;PMS_P1;PMS_P2;Temp;Humidity;BMP_temperature;BMP_pressure;BME280_temperature;BME280_humidity;BME280_pressure;Samples;Min_cycle;Max_cycle;Signal;HPM_P1;HPM_P2
2022/08/26 00:00:58;;;;;;;7.50;6.50;;;23.40;99.90;;;;;;5076328;28;20488;-55
2022/08/26 00:03:25;;;;;;;7.43;6.00;;;23.20;99.90;;;;;;5076117;28;20804;-55
2022/08/26 00:05:52;;;;;;;8.10;6.60;;;23.10;99.90;;;;;;5076545;28;20502;-55
2022/08/26 00:08:21;;;;;;;8.30;7.00;;;23.00;99.90;;;;;;5076035;28;20951;-55
2022/08/26 00:10:49;;;;;;;7.40;6.80;;;22.90;99.90;;;;;;5075892;28;20494;-55
2022/08/26 00:13:17;;;;;;;6.97;6.17;;;22.70;99.90;;;;;;5076370;28;20454;-55
2022/08/26 00:15:45;;;;;;;7.30;6.50;;;22.60;99.90;;;;;;5075960;28;20452;-55
2022/08/26 00:18:13;;;;;;;7.27;6.30;;;22.80;99.90;;;;;;5075701;28;20498;-56
2022/08/26 00:20:40;;;;;;;6.80;6.20;;;22.80;99.90;;;;;;5075802;28;20559;-55
2022/08/26 00:23:08;;;;;;;7.13;6.50;;;22.80;99.90;;;;;;5075908;28;20480;-55
2022/08/26 00:25:37;;;;;;;8.60;6.90;;;22.90;99.90;;;;;;5075987;28;20883;-55
2022/08/26 00:28:04;;;;;;;7.10;6.40;;;23.00;99.90;;;;;;5075628;28;20487;-55
2022/08/26 00:30:33;;;;;;;8.77;6.30;;;23.00;99.90;;;;;;5076045;28;20464;-55
2022/08/26 00:33:01;;;;;;;7.90;6.40;;;22.90;99.90;;;;;;5075916;28;20445;-55
2022/08/26 00:35:29;;;;;;;8.37;7.67;;;22.70;99.90;;;;;;5074795;28;20523;-55
2022/08/26 00:37:57;;;;;;;8.93;8.03;;;22.50;99.90;;;;;;5075970;28;20527;-55
2022/08/26 00:40:28;;;;;;;7.13;6.43;;;22.60;99.90;;;;;;5075641;28;20800;-55
2022/08/26 00:42:56;;;;;;;7.30;6.60;;;22.70;99.90;;;;;;5075737;28;20551;-55
2022/08/26 00:45:24;;;;;;;7.00;6.30;;;22.80;99.90;;;;;;5075305;28;20480;-55
2022/08/26 00:47:56;;;;;;;6.40;5.90;;;23.00;99.90;;;;;;5075290;28;20448;-55
2022/08/26 00:50:29;;;;;;;6.10;5.60;;;23.20;99.90;;;;;;5075312;28;20510;-55
2022/08/26 00:53:00;;;;;;;6.27;5.77;;;23.30;99.90;;;;;;5075617;28;20511;-56
2022/08/26 00:55:32;;;;;;;7.87;5.90;;;23.30;99.90;;;;;;5075688;28;20807;-56
2022/08/26 00:58:02;;;;;;;7.37;6.67;;;23.30;99.90;;;;;;5075608;28;20527;-56
2022/08/26 01:00:31;;;;;;;7.70;6.33;;;23.30;99.90;;;;;;5075075;28;21036;-56
2022/08/26 01:03:01;;;;;;;6.97;6.30;;;23.30;99.90;;;;;;5074941;28;21002;-55
2022/08/26 01:05:29;;;;;;;7.17;6.57;;;23.40;99.90;;;;;;5075210;28;20769;-55
2022/08/26 01:07:57;;;;;;;7.33;6.63;;;23.40;99.90;;;;;;5075252;28;20536;-55
2022/08/26 01:10:27;;;;;;;8.37;7.50;;;23.50;99.90;;;;;;5075074;28;20474;-55
2022/08/26 01:12:57;;;;;;;7.13;6.50;;;23.40;99.90;;;;;;5075037;28;20420;-55
2022/08/26 01:15:31;;;;;;;7.10;6.40;;;23.30;99.90;;;;;;5074919;28;20829;-55
2022/08/26 01:17:58;;;;;;;7.10;6.37;;;23.10;99.90;;;;;;5074961;28;20428;-55
2022/08/26 01:20:31;;;;;;;6.80;6.20;;;22.80;99.90;;;;;;5074725;28;20472;-56
2022/08/26 01:23:02;;;;;;;7.23;6.50;;;22.80;99.90;;;;;;5075023;28;20500;-55
2022/08/26 01:25:33;;;;;;;8.20;6.30;;;22.90;99.90;;;;;;5075090;28;20429;-55
2022/08/26 01:28:05;;;;;;;6.33;5.83;;;22.70;99.90;;;;;;5074977;28;20454;-55
2022/08/26 01:30:34;;;;;;;7.17;6.47;;;22.50;99.90;;;;;;5074780;28;20896;-55
2022/08/26 01:33:04;;;;;;;6.77;6.27;;;22.30;99.90;;;;;;5074527;28;20998;-55
2022/08/26 01:35:32;;;;;;;7.20;6.50;;;22.30;99.90;;;;;;5074412;28;20459;-55
2022/08/26 01:38:01;;;;;;;9.00;6.90;;;22.30;99.90;;;;;;5074622;28;20517;-55
2022/08/26 01:40:34;;;;;;;6.57;5.70;;;22.40;99.90;;;;;;5074161;28;20452;-55
2022/08/26 01:43:02;;;;;;;7.33;6.63;;;22.50;99.90;;;;;;5074643;28;20562;-55
2022/08/26 01:45:32;;;;;;;6.57;5.83;;;22.70;99.90;;;;;;5073858;28;20554;-55
2022/08/26 01:48:04;;;;;;;6.90;6.40;;;22.80;99.90;;;;;;5074254;28;20515;-55
2022/08/26 01:50:35;;;;;;;12.63;7.37;;;22.30;99.90;;;;;;5074048;28;20551;-55
2022/08/26 01:53:10;;;;;;;11.60;6.70;;;22.10;99.90;;;;;;5074194;28;20511;-55
2022/08/26 01:55:40;;;;;;;7.33;6.63;;;22.20;99.90;;;;;;5074318;28;20439;-55
2022/08/26 01:58:13;;;;;;;7.90;6.60;;;22.30;99.90;;;;;;5074253;28;20861;-55
2022/08/26 02:00:40;;;;;;;7.20;6.60;;;22.50;99.90;;;;;;5073847;28;20480;-55
2022/08/26 02:03:17;;;;;;;6.87;6.27;;;22.50;99.90;;;;;;5074191;28;20571;-55
2022/08/26 02:05:46;;;;;;;7.00;6.40;;;22.30;99.90;;;;;;5074198;28;20424;-55
2022/08/26 02:08:17;;;;;;;7.37;6.77;;;22.20;99.90;;;;;;5073749;28;20448;-55
2022/08/26 02:10:44;;;;;;;7.73;5.90;;;22.20;99.90;;;;;;5073708;28;20484;-55
2022/08/26 02:13:12;;;;;;;7.93;7.23;;;22.00;99.90;;;;;;5074116;28;20425;-55
2022/08/26 02:15:42;;;;;;;7.43;6.83;;;22.00;99.90;;;;;;5073887;28;20625;-55
2022/08/26 02:18:11;;;;;;;6.43;5.93;;;22.10;99.90;;;;;;5073411;28;20444;-55
2022/08/26 02:20:38;;;;;;;7.73;7.00;;;22.30;99.90;;;;;;5073928;28;20494;-55
2022/08/26 02:23:06;;;;;;;6.80;6.20;;;22.40;99.90;;;;;;5073408;28;20479;-55
2022/08/26 02:25:47;;;;;;;6.93;6.33;;;22.50;99.90;;;;;;5073626;28;20483;-55
2022/08/26 02:28:16;;;;;;;7.83;7.07;;;22.40;99.90;;;;;;5073839;28;20777;-55
2022/08/26 02:30:43;;;;;;;6.53;5.93;;;22.30;99.90;;;;;;5073475;28;20958;-55
2022/08/26 02:33:11;;;;;;;7.30;6.40;;;22.40;99.90;;;;;;5073707;28;20801;-55
2022/08/26 02:35:39;;;;;;;6.90;6.27;;;22.30;99.90;;;;;;5073327;28;20803;-56
2022/08/26 02:38:09;;;;;;;7.03;6.43;;;22.10;99.90;;;;;;5073767;28;20448;-55
2022/08/26 02:40:40;;;;;;;7.83;6.87;;;21.90;99.90;;;;;;5073713;28;20944;-55
2022/08/26 02:43:08;;;;;;;7.40;6.70;;;21.80;99.90;;;;;;5073164;28;20874;-55
2022/08/26 02:45:35;;;;;;;7.47;6.83;;;21.80;99.90;;;;;;5073111;28;20475;-55
2022/08/26 02:48:09;;;;;;;11.13;6.50;;;21.90;99.90;;;;;;5073602;28;20804;-55
2022/08/26 02:50:36;;;;;;;7.57;6.27;;;21.80;99.90;;;;;;5073128;28;20553;-55
2022/08/26 02:53:03;;;;;;;7.83;6.53;;;21.70;99.90;;;;;;5073182;28;20433;-55
2022/08/26 02:55:31;;;;;;;8.73;7.83;;;21.60;99.90;;;;;;5073279;28;20450;-55
2022/08/26 02:58:00;;;;;;;6.53;5.97;;;21.60;99.90;;;;;;5073062;28;20449;-55
2022/08/26 03:00:27;;;;;;;7.80;7.07;;;21.60;99.90;;;;;;5072777;28;20468;-55
2022/08/26 03:02:55;;;;;;;6.13;5.57;;;21.60;99.90;;;;;;5073423;28;20590;-55
2022/08/26 03:05:23;;;;;;;7.23;6.63;;;21.80;99.90;;;;;;5073060;28;20493;-55
2022/08/26 03:07:51;;;;;;;6.87;6.33;;;21.90;99.90;;;;;;5072977;28;20448;-55
2022/08/26 03:10:19;;;;;;;6.33;5.83;;;22.10;99.90;;;;;;5072801;28;20451;-55
2022/08/26 03:12:46;;;;;;;7.40;6.80;;;22.20;99.90;;;;;;5073426;28;20435;-55
2022/08/26 03:15:17;;;;;;;6.80;6.20;;;22.20;99.90;;;;;;5073175;28;20543;-55
2022/08/26 03:17:46;;;;;;;6.83;6.23;;;22.20;99.90;;;;;;5072862;28;20519;-55
2022/08/26 03:20:14;;;;;;;8.83;7.20;;;22.20;99.90;;;;;;5073221;28;20539;-55
2022/08/26 03:22:41;;;;;;;6.27;5.77;;;21.80;99.90;;;;;;5073045;28;20884;-55
2022/08/26 03:25:11;;;;;;;8.00;7.20;;;21.70;99.90;;;;;;5072968;28;20451;-55
2022/08/26 03:27:38;;;;;;;7.57;6.53;;;21.50;99.90;;;;;;5072926;28;21002;-55
2022/08/26 03:32:52;;;;;;;7.40;6.70;;;21.50;99.90;;;;;;5072894;28;20477;-55
2022/08/26 03:35:20;;;;;;;7.17;6.57;;;21.80;99.90;;;;;;5072658;28;20539;-56
2022/08/26 03:37:47;;;;;;;7.97;7.17;;;21.90;99.90;;;;;;5072827;28;20540;-55
2022/08/26 03:40:14;;;;;;;9.90;6.00;;;21.80;99.90;;;;;;5072897;28;20542;-55
2022/08/26 03:42:43;;;;;;;7.20;6.60;;;21.70;99.90;;;;;;5072859;28;20563;-55
2022/08/26 03:45:12;;;;;;;6.67;6.07;;;21.70;99.90;;;;;;5072420;28;20484;-56
2022/08/26 03:47:40;;;;;;;7.07;6.40;;;21.70;99.90;;;;;;5072708;28;20800;-55
2022/08/26 03:50:11;;;;;;;10.93;7.00;;;21.70;99.90;;;;;;5072429;28;20440;-55
2022/08/26 03:52:38;;;;;;;7.17;6.47;;;21.60;99.90;;;;;;5072904;28;20508;-55
2022/08/26 03:55:07;;;;;;;7.97;6.90;;;21.50;99.90;;;;;;5072629;28;20535;-55
2022/08/26 03:57:34;;;;;;;8.60;7.30;;;21.50;99.90;;;;;;5072488;28;20967;-55
2022/08/26 04:00:01;;;;;;;7.80;6.70;;;21.50;99.90;;;;;;5072485;28;20440;-55
2022/08/26 04:02:29;;;;;;;8.07;7.30;;;21.60;99.90;;;;;;5072806;28;20487;-55
2022/08/26 04:04:56;;;;;;;8.00;6.67;;;21.60;99.90;;;;;;5072715;28;20448;-55
2022/08/26 04:07:25;;;;;;;7.33;6.63;;;21.40;99.90;;;;;;5072680;28;20545;-55
2022/08/26 04:09:55;;;;;;;6.93;6.17;;;21.50;99.90;;;;;;5073483;28;20451;-55
2022/08/26 04:12:22;;;;;;;7.33;6.67;;;21.80;99.90;;;;;;5075971;28;20467;-55
2022/08/26 04:14:49;;;;;;;7.73;7.13;;;21.80;99.90;;;;;;5075964;28;20830;-55
2022/08/26 04:17:16;;;;;;;7.50;6.80;;;21.60;99.90;;;;;;5076092;28;20522;-55
2022/08/26 04:19:43;;;;;;;7.97;7.20;;;21.60;99.90;;;;;;5076245;28;20474;-55
2022/08/26 04:22:10;;;;;;;6.80;6.17;;;21.80;99.90;;;;;;5075733;28;20483;-55
2022/08/26 04:24:39;;;;;;;7.47;6.87;;;21.90;99.90;;;;;;5076097;28;20490;-55
2022/08/26 04:27:07;;;;;;;6.83;6.23;;;21.70;99.90;;;;;;5076003;28;20428;-55
2022/08/26 04:29:34;;;;;;;7.60;6.20;;;21.90;99.90;;;;;;5076050;28;20453;-55
2022/08/26 04:32:01;;;;;;;8.70;7.10;;;21.60;99.90;;;;;;5075904;28;20495;-55
2022/08/26 04:34:29;;;;;;;8.10;7.30;;;21.50;99.90;;;;;;5075728;28;20453;-56
2022/08/26 04:36:57;;;;;;;7.77;7.17;;;21.20;99.90;;;;;;5075583;28;20467;-55
2022/08/26 04:39:24;;;;;;;7.60;6.90;;;21.50;99.90;;;;;;5075545;28;20437;-55
2022/08/26 04:41:54;;;;;;;9.73;7.27;;;21.60;99.90;;;;;;5075750;28;20566;-55
2022/08/26 04:44:23;;;;;;;10.10;7.90;;;21.30;99.90;;;;;;5075215;28;20469;-55
2022/08/26 04:46:50;;;;;;;9.53;7.90;;;21.10;99.90;;;;;;5075732;28;20443;-55
2022/08/26 04:49:18;;;;;;;7.87;7.27;;;21.10;99.90;;;;;;5075264;28;20487;-55
2022/08/26 04:51:45;;;;;;;7.20;6.60;;;21.20;99.90;;;;;;5075635;28;20571;-55
2022/08/26 04:54:13;;;;;;;7.93;7.13;;;21.10;99.90;;;;;;5075551;28;20453;-55
2022/08/26 04:56:42;;;;;;;10.37;7.67;;;21.20;99.90;;;;;;5075072;28;20871;-55
2022/08/26 04:59:14;;;;;;;8.30;7.50;;;21.30;99.90;;;;;;5075588;28;20551;-55
2022/08/26 05:01:43;;;;;;;12.07;7.20;;;21.40;99.90;;;;;;5075412;28;20460;-55
2022/08/26 05:04:10;;;;;;;8.57;7.67;;;21.50;99.90;;;;;;5075237;28;20495;-55
2022/08/26 05:06:37;;;;;;;11.80;8.00;;;21.50;99.90;;;;;;5075460;28;20805;-55
2022/08/26 05:09:05;;;;;;;12.03;8.70;;;21.50;99.90;;;;;;5074848;28;20905;-55
2022/08/26 05:11:32;;;;;;;8.30;7.17;;;21.30;99.90;;;;;;5074671;28;20533;-55
2022/08/26 05:13:59;;;;;;;15.27;7.97;;;21.40;99.90;;;;;;5074955;28;20455;-55
2022/08/26 05:16:29;;;;;;;11.70;8.23;;;21.40;99.90;;;;;;5075005;28;20547;-56
2022/08/26 05:18:56;;;;;;;8.70;7.77;;;21.40;99.90;;;;;;5074828;28;20460;-55
2022/08/26 05:21:25;;;;;;;8.20;7.50;;;21.20;99.90;;;;;;5074443;28;20465;-55
2022/08/26 05:23:53;;;;;;;8.23;7.53;;;21.20;99.90;;;;;;5074917;28;20572;-55
2022/08/26 05:26:21;;;;;;;9.40;7.70;;;21.40;99.90;;;;;;5074515;28;20449;-55
2022/08/26 05:28:48;;;;;;;8.67;7.30;;;21.60;99.90;;;;;;5074664;28;20958;-55
2022/08/26 05:31:17;;;;;;;9.97;9.07;;;21.60;99.90;;;;;;5074789;28;20888;-55
2022/08/26 05:33:47;;;;;;;9.43;7.80;;;21.60;99.90;;;;;;5074288;28;20472;-55
2022/08/26 05:36:17;;;;;;;9.00;7.70;;;21.50;99.90;;;;;;5074587;28;20801;-56
2022/08/26 05:38:44;;;;;;;11.77;8.87;;;21.60;99.90;;;;;;5074336;28;20436;-55
2022/08/26 05:41:17;;;;;;;11.40;8.20;;;21.60;99.90;;;;;;5074085;28;20486;-55
2022/08/26 05:43:44;;;;;;;9.20;8.13;;;21.50;99.90;;;;;;5074237;28;20484;-56
2022/08/26 05:46:12;;;;;;;9.23;8.13;;;21.60;99.90;;;;;;5073878;28;20480;-55
2022/08/26 05:48:39;;;;;;;10.80;8.60;;;21.50;99.90;;;;;;5073964;28;20420;-55
2022/08/26 05:51:11;;;;;;;9.10;8.27;;;21.60;99.90;;;;;;5074096;28;20475;-56
2022/08/26 05:53:41;;;;;;;10.03;9.13;;;21.60;99.90;;;;;;5073867;28;20455;-55
2022/08/26 05:56:10;;;;;;;11.27;7.73;;;21.60;99.90;;;;;;5074061;28;20994;-54
2022/08/26 05:58:39;;;;;;;9.10;8.17;;;21.50;99.90;;;;;;5074148;28;20452;-54
2022/08/26 06:01:11;;;;;;;8.93;8.13;;;21.50;99.90;;;;;;5073560;28;20552;-54
2022/08/26 06:03:41;;;;;;;11.73;7.33;;;21.50;99.90;;;;;;5073938;28;20468;-54
2022/08/26 06:06:13;;;;;;;9.67;8.77;;;21.60;99.90;;;;;;5073850;28;20458;-54
2022/08/26 06:08:40;;;;;;;8.10;6.83;;;21.60;99.90;;;;;;5073682;28;20439;-54
2022/08/26 06:11:10;;;;;;;8.20;7.40;;;21.70;99.90;;;;;;5073410;28;20979;-54
2022/08/26 06:13:39;;;;;;;8.27;7.40;;;21.60;99.90;;;;;;5073888;28;20444;-54
2022/08/26 06:16:08;;;;;;;9.20;8.17;;;21.70;99.90;;;;;;5073671;28;20491;-54
2022/08/26 06:18:39;;;;;;;9.47;8.13;;;21.80;99.90;;;;;;5073605;28;20476;-54
2022/08/26 06:21:17;;;;;;;10.93;8.03;;;21.90;99.90;;;;;;5073690;28;20555;-54
2022/08/26 06:26:30;;;;;;;9.10;8.00;;;21.90;99.90;;;;;;5073546;28;20399;-54
2022/08/26 06:28:58;;;;;;;12.10;7.10;;;21.90;99.90;;;;;;5073709;28;20444;-55
2022/08/26 06:31:26;;;;;;;11.83;7.37;;;21.80;99.90;;;;;;5072962;28;20563;-55
2022/08/26 06:33:53;;;;;;;14.63;6.73;;;21.80;99.90;;;;;;5072679;28;20463;-55
2022/08/26 06:36:24;;;;;;;8.27;7.47;;;21.90;99.90;;;;;;5073546;28;20953;-55
2022/08/26 06:38:52;;;;;;;9.97;7.87;;;22.00;99.90;;;;;;5073351;28;20460;-55
2022/08/26 06:41:21;;;;;;;11.70;8.50;;;22.00;99.90;;;;;;5073306;28;20476;-55
2022/08/26 06:43:49;;;;;;;8.50;7.70;;;22.00;99.90;;;;;;5072954;28;20491;-54
2022/08/26 06:46:18;;;;;;;6.93;6.43;;;22.10;99.90;;;;;;5072829;28;20567;-55
2022/08/26 06:48:46;;;;;;;7.77;7.00;;;22.20;99.90;;;;;;5073277;28;20449;-54
2022/08/26 06:51:17;;;;;;;9.07;8.17;;;22.30;99.90;;;;;;5073018;28;20464;-54
2022/08/26 06:53:48;;;;;;;10.53;7.50;;;22.20;99.90;;;;;;5073426;28;20464;-55
2022/08/26 06:56:17;;;;;;;7.83;7.20;;;22.10;99.90;;;;;;5072914;28;20433;-56
2022/08/26 06:58:44;;;;;;;8.00;7.20;;;22.50;99.90;;;;;;5073253;28;20474;-55
2022/08/26 07:01:17;;;;;;;8.27;7.57;;;22.50;99.90;;;;;;5073283;28;20478;-55
2022/08/26 07:03:44;;;;;;;8.33;7.47;;;22.40;99.90;;;;;;5073467;28;20490;-55
2022/08/26 07:06:11;;;;;;;10.53;8.60;;;22.40;99.90;;;;;;5073199;28;20543;-55
2022/08/26 07:08:39;;;;;;;11.40;8.00;;;22.40;99.90;;;;;;5073440;28;20543;-55
2022/08/26 07:11:10;;;;;;;11.10;8.03;;;22.20;99.90;;;;;;5073368;28;20559;-55
2022/08/26 07:13:38;;;;;;;14.53;8.47;;;22.40;99.90;;;;;;5072623;28;20915;-55
2022/08/26 07:16:05;;;;;;;9.83;8.03;;;22.30;99.90;;;;;;5072991;28;20459;-55
2022/08/26 07:18:34;;;;;;;9.60;8.73;;;22.40;99.90;;;;;;5072694;28;20815;-56
2022/08/26 07:21:02;;;;;;;10.43;8.70;;;22.30;99.90;;;;;;5072576;28;20992;-55
2022/08/26 07:23:29;;;;;;;12.60;9.30;;;22.30;99.90;;;;;;5072923;28;20566;-55
2022/08/26 07:25:56;;;;;;;9.73;8.73;;;22.30;99.90;;;;;;5072872;28;20539;-55
2022/08/26 07:28:25;;;;;;;10.33;8.00;;;22.30;99.90;;;;;;5073034;28;20450;-55
2022/08/26 07:30:52;;;;;;;10.03;8.30;;;22.40;99.90;;;;;;5072934;28;20938;-55
2022/08/26 07:33:19;;;;;;;13.60;7.90;;;22.60;99.90;;;;;;5072875;28;20531;-55
2022/08/26 07:35:46;;;;;;;11.77;9.00;;;22.50;99.90;;;;;;5072848;28;20452;-55
2022/08/26 07:38:14;;;;;;;9.30;8.40;;;22.70;99.90;;;;;;5072864;28;20539;-55
2022/08/26 07:40:41;;;;;;;8.70;7.90;;;22.70;99.90;;;;;;5072667;28;20479;-55
2022/08/26 07:43:13;;;;;;;13.87;9.37;;;22.80;99.90;;;;;;5072451;28;20437;-55
2022/08/26 07:45:41;;;;;;;10.10;9.03;;;22.70;99.90;;;;;;5074595;28;20515;-55
2022/08/26 07:48:08;;;;;;;11.17;8.70;;;22.80;99.90;;;;;;5076543;28;20471;-55
2022/08/26 07:50:36;;;;;;;12.30;9.50;;;22.80;99.90;;;;;;5076683;28;20468;-55
2022/08/26 07:53:04;;;;;;;10.40;9.47;;;22.80;99.90;;;;;;5076433;28;20549;-55
2022/08/26 07:55:31;;;;;;;9.23;8.33;;;23.00;99.90;;;;;;5076261;28;20440;-55
2022/08/26 07:57:59;;;;;;;9.77;7.73;;;23.00;99.90;;;;;;5076313;28;20438;-55
2022/08/26 08:00:27;;;;;;;13.93;8.40;;;23.20;99.90;;;;;;5076446;28;20554;-56
2022/08/26 08:02:55;;;;;;;11.17;8.27;;;23.20;99.90;;;;;;5076465;28;20531;-55
2022/08/26 08:05:23;;;;;;;12.73;8.10;;;23.40;99.90;;;;;;5076034;28;20566;-55
2022/08/26 08:07:51;;;;;;;10.77;8.50;;;23.50;99.90;;;;;;5076258;28;20477;-55
2022/08/26 08:10:21;;;;;;;10.70;8.40;;;23.60;99.90;;;;;;5076260;28;20451;-56
2022/08/26 08:12:48;;;;;;;9.33;8.50;;;23.60;99.90;;;;;;5076405;28;20428;-56
2022/08/26 08:15:18;;;;;;;9.40;8.50;;;23.70;99.90;;;;;;5076028;28;20483;-55
2022/08/26 08:17:46;;;;;;;11.60;7.73;;;23.80;99.90;;;;;;5076258;28;20482;-55
2022/08/26 08:20:14;;;;;;;10.60;8.20;;;24.00;99.90;;;;;;5075892;28;20455;-56
2022/08/26 08:22:42;;;;;;;8.67;7.87;;;24.30;99.90;;;;;;5075791;28;20852;-56
2022/08/26 08:25:12;;;;;;;7.87;6.97;;;24.40;99.90;;;;;;5075985;28;20479;-56
2022/08/26 08:27:40;;;;;;;8.70;7.80;;;24.60;99.90;;;;;;5075729;28;20452;-56
2022/08/26 08:30:09;;;;;;;7.57;6.87;;;24.70;99.90;;;;;;5075631;28;21014;-56
2022/08/26 08:32:38;;;;;;;10.50;6.80;;;25.10;99.90;;;;;;5075878;28;20440;-56
2022/08/26 08:35:07;;;;;;;8.90;7.63;;;25.40;99.90;;;;;;5075612;28;20465;-56
2022/08/26 08:37:36;;;;;;;7.80;6.43;;;25.90;99.90;;;;;;5075561;28;20801;-55
2022/08/26 08:40:05;;;;;;;10.83;7.40;;;26.70;99.90;;;;;;5075567;28;20792;-56
2022/08/26 08:42:44;;;;;;;7.83;6.60;;;27.50;99.90;;;;;;5075866;28;20463;-57
2022/08/26 08:45:14;;;;;;;7.67;6.87;;;28.50;98.50;;;;;;5075424;28;20488;-55
2022/08/26 08:47:46;;;;;;;6.53;5.57;;;28.80;97.50;;;;;;5075146;28;20444;-56
2022/08/26 08:50:22;;;;;;;6.60;6.00;;;29.20;95.80;;;;;;5075397;28;20767;-56
2022/08/26 08:52:58;;;;;;;6.40;5.90;;;29.80;94.60;;;;;;5075513;28;20482;-56
2022/08/26 08:55:33;;;;;;;6.17;5.57;;;30.50;93.30;;;;;;5075597;28;20439;-56
2022/08/26 08:58:05;;;;;;;9.43;5.43;;;30.90;92.30;;;;;;5074302;28;20439;-56
2022/08/26 09:00:39;;;;;;;5.80;5.30;;;31.40;90.90;;;;;;5075398;28;20460;-56
2022/08/26 09:03:17;;;;;;;5.80;5.30;;;31.30;90.40;;;;;;5075489;28;20463;-56
2022/08/26 09:05:50;;;;;;;6.30;5.40;;;31.30;88.70;;;;;;5075107;28;20802;-55
2022/08/26 09:08:26;;;;;;;6.10;5.50;;;31.20;89.20;;;;;;5075256;28;20424;-56
2022/08/26 09:10:56;;;;;;;9.70;6.40;;;31.10;88.30;;;;;;5075196;28;20900;-56
2022/08/26 09:13:24;;;;;;;7.30;6.57;;;31.00;87.70;;;;;;5074981;28;20440;-56
2022/08/26 09:16:02;;;;;;;9.87;5.80;;;30.80;87.70;;;;;;5075174;28;20523;-56
2022/08/26 09:18:43;;;;;;;7.73;5.40;;;30.40;88.20;;;;;;5075071;28;20494;-56
2022/08/26 09:21:14;;;;;;;8.57;6.03;;;30.20;87.70;;;;;;5074983;28;20831;-56
2022/08/26 09:23:43;;;;;;;10.00;6.47;;;29.90;89.80;;;;;;5074604;28;20439;-56
2022/08/26 09:26:16;;;;;;;6.73;6.03;;;;;;;;;;5074377;28;20935;-55
2022/08/26 09:28:48;;;;;;;6.17;5.57;;;29.60;89.30;;;;;;5074602;28;20540;-55
2022/08/26 09:31:21;;;;;;;6.80;5.90;;;29.10;90.20;;;;;;5074564;28;20445;-55
2022/08/26 09:33:49;;;;;;;9.07;6.40;;;28.60;90.60;;;;;;5074417;28;20524;-55
2022/08/26 09:36:22;;;;;;;6.27;5.60;;;28.70;91.40;;;;;;5074666;28;20448;-55
2022/08/26 09:38:51;;;;;;;6.43;5.77;;;28.70;91.20;;;;;;5074755;28;20455;-55
2022/08/26 09:41:25;;;;;;;9.70;5.60;;;29.10;91.80;;;;;;5074311;28;20472;-55
2022/08/26 09:44:11;;;;;;;6.40;5.90;;;29.30;90.60;;;;;;5074469;28;20599;-55
2022/08/26 09:46:42;;;;;;;7.23;5.77;;;29.50;89.70;;;;;;5074486;28;20429;-55
2022/08/26 09:49:31;;;;;;;8.47;5.30;;;30.00;90.50;;;;;;5074255;28;20413;-55
2022/08/26 09:52:13;;;;;;;9.33;6.20;;;30.20;87.90;;;;;;5074297;28;20467;-55
2022/08/26 09:54:44;;;;;;;6.20;5.60;;;30.20;87.40;;;;;;5074529;28;20417;-55
2022/08/26 09:57:20;;;;;;;9.73;5.90;;;30.50;88.40;;;;;;5074435;28;20421;-55
2022/08/26 09:59:49;;;;;;;6.07;5.60;;;30.80;87.90;;;;;;5074439;28;20504;-55
2022/08/26 10:02:34;;;;;;;11.63;6.13;;;30.90;87.50;;;;;;5073930;28;20471;-55
2022/08/26 10:05:05;;;;;;;8.63;5.93;;;31.20;87.70;;;;;;5073965;28;20548;-55
2022/08/26 10:07:40;;;;;;;7.30;6.37;;;31.30;85.30;;;;;;5073553;28;20465;-55
2022/08/26 10:10:13;;;;;;;7.77;6.87;;;31.90;85.30;;;;;;5073790;28;20436;-55
2022/08/26 10:12:49;;;;;;;9.07;6.97;;;32.50;82.90;;;;;;5073986;28;20405;-55
2022/08/26 10:15:18;;;;;;;18.00;8.67;;;32.80;82.70;;;;;;5073495;28;20883;-56
2022/08/26 10:17:50;;;;;;;9.20;7.20;;;33.50;80.50;;;;;;5073455;28;20459;-56
2022/08/26 10:20:23;;;;;;;11.23;7.00;;;33.40;78.80;;;;;;5073671;28;20454;-55
2022/08/26 10:22:55;;;;;;;10.00;6.67;;;34.20;77.00;;;;;;5073507;28;20432;-55
2022/08/26 10:25:28;;;;;;;9.90;7.20;;;34.60;76.20;;;;;;5073684;28;20564;-56
2022/08/26 10:28:03;;;;;;;8.97;7.43;;;34.80;74.10;;;;;;5073769;28;20432;-56
2022/08/26 10:30:38;;;;;;;12.43;7.27;;;34.90;72.50;;;;;;5073745;28;20471;-56
2022/08/26 10:33:08;;;;;;;10.33;7.60;;;34.70;72.50;;;;;;5073410;28;20432;-56
2022/08/26 10:35:40;;;;;;;10.37;6.50;;;35.10;69.70;;;;;;5073254;28;20493;-55
2022/08/26 10:38:11;;;;;;;10.10;6.47;;;34.70;68.20;;;;;;5073392;28;20518;-55
2022/08/26 10:40:49;;;;;;;9.97;7.17;;;34.70;68.50;;;;;;5073438;28;20475;-55
2022/08/26 10:43:22;;;;;;;10.87;7.63;;;34.20;69.60;;;;;;5073389;28;20420;-55
2022/08/26 10:45:51;;;;;;;9.13;6.53;;;35.40;68.60;;;;;;5072870;28;20492;-55
2022/08/26 10:48:24;;;;;;;12.83;7.00;;;35.70;66.70;;;;;;5073175;28;20444;-56
2022/08/26 10:50:51;;;;;;;13.23;7.87;;;35.80;66.20;;;;;;5072996;28;20467;-55
2022/08/26 10:53:27;;;;;;;7.53;6.77;;;35.50;64.30;;;;;;5073055;28;20530;-55
2022/08/26 10:56:02;;;;;;;9.97;6.40;;;35.40;64.30;;;;;;5073174;28;20427;-55
2022/08/26 10:58:41;;;;;;;9.73;6.23;;;34.90;65.00;;;;;;5073179;28;20424;-55
2022/08/26 11:04:06;;;;;;;8.67;6.27;;;36.10;63.70;;;;;;5073052;28;20407;-55
2022/08/26 11:06:33;;;;;;;11.47;6.30;;;36.20;62.10;;;;;;5073307;28;20428;-55
2022/08/26 11:09:02;;;;;;;6.57;5.93;;;35.80;61.70;;;;;;5073157;28;20448;-55
2022/08/26 11:11:48;;;;;;;10.30;6.87;;;35.10;63.20;;;;;;5073253;28;20514;-55
2022/08/26 11:14:34;;;;;;;11.17;6.97;;;34.50;63.60;;;;;;5073192;28;20432;-55
2022/08/26 11:17:02;;;;;;;10.87;7.70;;;34.50;65.40;;;;;;5072894;28;20435;-55
2022/08/26 11:20:04;;;;;;;10.80;7.50;;;33.80;66.10;;;;;;5073482;28;20444;-56
2022/08/26 11:22:34;;;;;;;9.00;6.83;;;34.00;66.00;;;;;;5066774;28;20447;-55
2022/08/26 11:25:08;;;;;;;9.57;6.83;;;34.90;64.50;;;;;;5076836;28;20989;-55
2022/08/26 11:28:04;;;;;;;8.40;6.03;;;35.00;63.40;;;;;;5076896;28;20427;-56
2022/08/26 11:30:50;;;;;;;7.70;6.87;;;34.20;64.70;;;;;;5076834;28;20467;-55
2022/08/26 11:33:55;;;;;;;7.70;7.00;;;33.50;65.60;;;;;;5076708;28;20431;-56
2022/08/26 11:36:41;;;;;;;9.40;7.40;;;32.90;67.00;;;;;;5076619;28;20430;-55
2022/08/26 11:39:24;;;;;;;13.40;8.13;;;32.30;67.80;;;;;;5076815;28;20431;-55
2022/08/26 11:41:54;;;;;;;12.70;7.60;;;32.10;69.20;;;;;;5076832;28;20468;-55
2022/08/26 11:44:24;;;;;;;8.33;7.00;;;31.60;69.70;;;;;;5076511;28;20570;-55
2022/08/26 11:46:54;;;;;;;7.67;7.00;;;31.00;71.30;;;;;;5076492;28;20894;-55
2022/08/26 11:49:21;;;;;;;7.40;5.70;;;30.90;73.20;;;;;;5076576;28;20451;-55
2022/08/26 11:51:48;;;;;;;8.53;7.00;;;31.10;72.00;;;;;;5076491;28;20448;-55
2022/08/26 11:54:18;;;;;;;13.00;7.80;;;31.50;72.90;;;;;;5076623;28;20450;-55
2022/08/26 11:56:47;;;;;;;7.57;6.37;;;32.30;72.00;;;;;;5076245;28;20973;-55
2022/08/26 11:59:23;;;;;;;10.27;7.10;;;33.20;70.00;;;;;;5076168;28;20452;-55
2022/08/26 12:01:54;;;;;;;10.63;6.00;;;33.80;68.00;;;;;;5076206;28;20459;-55
2022/08/26 12:04:28;;;;;;;7.87;6.87;;;34.20;68.40;;;;;;5076092;28;20432;-55
2022/08/26 12:06:57;;;;;;;10.63;7.20;;;33.80;65.90;;;;;;5076452;28;20428;-55
2022/08/26 12:09:26;;;;;;;7.80;7.10;;;33.80;66.70;;;;;;5076139;28;20889;-55
2022/08/26 12:12:09;;;;;;;6.83;6.23;;;34.60;66.20;;;;;;5076467;28;20482;-55
2022/08/26 12:14:36;;;;;;;7.53;6.60;;;35.10;64.60;;;;;;5076444;28;20424;-55
2022/08/26 12:17:11;;;;;;;7.50;6.80;;;34.90;63.50;;;;;;5075930;28;20780;-55
2022/08/26 12:19:38;;;;;;;13.33;7.13;;;34.90;63.20;;;;;;5075762;28;20920;-56
2022/08/26 12:22:14;;;;;;;10.63;6.50;;;35.30;61.60;;;;;;5075822;28;20463;-56
2022/08/26 12:24:46;;;;;;;12.13;6.77;;;34.90;63.20;;;;;;5075939;28;20516;-56
2022/08/26 12:27:17;;;;;;;10.90;7.20;;;35.00;61.00;;;;;;5075828;28;20428;-56
2022/08/26 12:29:45;;;;;;;13.50;6.97;;;34.90;61.20;;;;;;5075919;28;20436;-55
2022/08/26 12:32:16;;;;;;;9.40;6.50;;;34.90;60.40;;;;;;5074249;28;20463;-56
2022/08/26 12:34:45;;;;;;;9.77;6.57;;;35.20;60.80;;;;;;5076062;28;20449;-55
2022/08/26 12:37:14;;;;;;;9.13;8.17;;;34.40;62.70;;;;;;5075560;28;20953;-55
2022/08/26 12:39:43;;;;;;;9.30;8.33;;;33.60;63.90;;;;;;5075846;28;20444;-55
2022/08/26 12:42:24;;;;;;;9.60;8.07;;;32.90;65.60;;;;;;5075821;28;20579;-56
2022/08/26 12:45:00;;;;;;;8.70;6.77;;;32.50;67.40;;;;;;5074219;28;21109;-55
2022/08/26 12:47:32;;;;;;;11.83;7.53;;;33.00;66.70;;;;;;5075696;28;20494;-55
2022/08/26 12:50:04;;;;;;;11.87;7.37;;;32.90;65.70;;;;;;5075244;28;20523;-56
2022/08/26 12:52:34;;;;;;;9.80;7.10;;;32.20;67.80;;;;;;5075333;28;20527;-55
2022/08/26 12:55:04;;;;;;;10.53;7.27;;;32.20;68.40;;;;;;5075499;28;20483;-55
2022/08/26 12:57:35;;;;;;;12.30;7.33;;;32.70;68.40;;;;;;5075486;28;20822;-55
2022/08/26 13:00:31;;;;;;;8.63;7.33;;;33.20;67.70;;;;;;5075475;28;20431;-55
2022/08/26 13:03:01;;;;;;;7.63;6.80;;;33.60;65.40;;;;;;5074890;28;20444;-55
2022/08/26 13:05:32;;;;;;;8.17;6.93;;;33.80;66.20;;;;;;5074777;28;20479;-55
2022/08/26 13:08:10;;;;;;;8.43;7.63;;;33.70;65.60;;;;;;5075368;28;20443;-58
2022/08/26 13:10:39;;;;;;;11.37;7.23;;;33.70;65.80;;;;;;5075042;28;20461;-55